Time;durP1;ratioP1;P1;durP2;ratioP2;P2;SDS_P1;SDS_P2;PMS_P1;PMS_P2;Temp;Humidity;BMP_temperature;BMP_pressure;BME280_temperature;BME280_humidity;BME280_pressure;Samples;Min_cycle;Max_cycle;Signal;HPM_P1;HPM_P2
2022/11/13 00:00:00;;;;;;;44.25;28.52;;;;;;;8.20;72.91;101468.28;4303357;33;34116;-72
2022/11/13 00:02:46;;;;;;;47.08;28.38;;;;;;;8.09;72.92;101466.09;4290020;33;34351;-76
2022/11/13 00:05:32;;;;;;;43.10;28.02;;;;;;;8.03;72.89;101456.87;4289895;33;33935;-72
2022/11/13 00:08:18;;;;;;;45.17;26.52;;;;;;;8.15;72.26;101457.22;4289957;33;34220;-72
2022/11/13 00:11:06;;;;;;;40.63;27.05;;;;;;;8.25;71.71;101446.94;4289676;33;34553;-72
2022/11/13 00:13:52;;;;;;;42.20;26.95;;;;;;;8.55;70.12;101455.81;4278985;33;33404;-72
2022/11/13 00:16:38;;;;;;;42.92;27.48;;;;;;;8.27;70.66;101453.00;4276051;33;34058;-71
2022/11/13 00:19:24;;;;;;;40.80;25.33;;;;;;;8.08;71.21;101443.63;4289645;33;35130;-72
2022/11/13 00:22:09;;;;;;;41.78;26.62;;;;;;;8.12;70.73;101454.88;4289868;33;34011;-72
2022/11/13 00:24:55;;;;;;;43.92;28.12;;;;;;;8.16;70.43;101456.19;4277451;33;33993;-72
2022/11/13 00:27:41;;;;;;;39.40;26.33;;;;;;;7.85;71.41;101451.88;4289512;33;33693;-72
2022/11/13 00:30:27;;;;;;;43.58;27.50;;;;;;;7.53;72.57;101464.75;4293239;33;33987;-76
2022/11/13 00:33:12;;;;;;;42.22;27.20;;;;;;;6.99;74.21;101465.00;4303019;33;33502;-71
2022/11/13 00:36:16;;;;;;;41.65;26.40;;;;;;;6.91;74.59;101454.25;4294175;33;33749;-72
2022/11/13 00:39:02;;;;;;;40.80;27.60;;;;;;;7.58;72.54;101462.34;4303938;33;34886;-76
2022/11/13 00:41:48;;;;;;;41.00;25.30;;;;;;;7.07;73.82;101464.09;4293056;33;33908;-76
2022/11/13 00:44:34;;;;;;;41.55;26.42;;;;;;;7.26;73.21;101463.56;4303065;33;33853;-71
2022/11/13 00:47:19;;;;;;;39.95;25.62;;;;;;;7.32;72.82;101472.75;4289464;33;34445;-72
2022/11/13 00:50:05;;;;;;;44.22;26.77;;;;;;;7.32;72.80;101462.81;4288958;33;35007;-72
2022/11/13 00:52:51;;;;;;;40.33;26.73;;;;;;;7.76;70.76;101455.72;4289411;33;34359;-73
2022/11/13 00:55:37;;;;;;;39.78;25.98;;;;;;;7.25;72.29;101459.16;4289398;33;34444;-74
2022/11/13 00:58:23;;;;;;;40.90;25.80;;;;;;;7.19;72.58;101452.66;4289173;33;33454;-71
2022/11/13 01:01:11;;;;;;;39.90;24.60;;;;;;;7.56;71.19;101452.78;4289044;33;33980;-76
2022/11/13 01:03:57;;;;;;;40.50;25.52;;;;;;;7.19;72.20;101451.78;4290905;33;34177;-75
2022/11/13 01:06:43;;;;;;;41.25;25.00;;;;;;;6.58;74.45;101441.06;4303507;33;33912;-74
2022/11/13 01:09:29;;;;;;;40.67;24.73;;;;;;;7.28;72.87;101450.72;4303659;33;34369;-76
2022/11/13 01:12:15;;;;;;;37.58;25.33;;;;;;;7.02;72.85;101447.59;4303549;33;34804;-71
2022/11/13 01:15:01;;;;;;;41.37;25.90;;;;;;;7.13;73.00;101445.28;4291534;33;35088;-72
2022/11/13 01:17:46;;;;;;;40.55;26.02;;;;;;;7.44;71.46;101438.88;4303535;33;33961;-72
2022/11/13 01:20:32;;;;;;;38.92;24.98;;;;;;;7.46;71.22;101438.69;4281427;33;33563;-72
2022/11/13 01:23:18;;;;;;;39.88;25.15;;;;;;;6.92;72.84;101440.59;4295462;33;33515;-71
2022/11/13 01:26:25;;;;;;;40.65;25.40;;;;;;;6.91;73.14;101435.38;4303391;33;33913;-71
2022/11/13 01:29:11;;;;;;;40.17;25.98;;;;;;;7.36;71.28;101441.66;4290531;33;33829;-72
2022/11/13 01:31:57;;;;;;;39.15;24.55;;;;;;;6.81;72.57;101435.66;4303134;33;33619;-70
2022/11/13 01:34:43;;;;;;;42.08;26.02;;;;;;;6.50;73.77;101428.50;4302635;33;33866;-71
2022/11/13 01:37:28;;;;;;;38.35;25.25;;;;;;;7.35;70.78;101427.34;4305330;33;34461;-73
2022/11/13 01:40:14;;;;;;;41.10;25.55;;;;;;;7.33;69.96;101426.69;4305396;33;34084;-71
2022/11/13 01:43:18;;;;;;;39.15;25.30;;;;;;;6.46;73.47;101418.25;4294315;33;33616;-76
2022/11/13 01:46:08;;;;;;;42.53;25.67;;;;;;;6.66;73.51;101424.81;4293067;33;34017;-74
2022/11/13 01:48:57;;;;;;;41.72;24.98;;;;;;;6.25;75.51;101425.12;4291846;33;34132;-72
2022/11/13 01:51:52;;;;;;;41.67;26.02;;;;;;;6.45;75.01;101417.41;4305379;33;34874;-70
2022/11/13 01:54:40;;;;;;;39.78;25.85;;;;;;;6.53;74.77;101430.00;4305381;33;33508;-74
2022/11/13 01:57:26;;;;;;;40.45;25.02;;;;;;;6.96;73.13;101414.94;4279099;33;34054;-71
2022/11/13 02:00:12;;;;;;;41.95;24.90;;;;;;;7.20;72.55;101413.00;4290825;33;34249;-71
2022/11/13 02:02:58;;;;;;;39.75;25.17;;;;;;;7.45;71.28;101408.16;4301661;33;34930;-71
2022/11/13 02:05:44;;;;;;;40.80;24.50;;;;;;;7.01;73.62;101400.88;4289962;33;33631;-71
2022/11/13 02:08:30;;;;;;;40.05;24.10;;;;;;;6.73;75.28;101401.47;4279725;33;34735;-71
2022/11/13 02:11:16;;;;;;;39.30;24.10;;;;;;;6.59;76.39;101394.22;4269685;33;34093;-71
2022/11/13 02:14:03;;;;;;;43.63;25.30;;;;;;;6.68;76.60;101394.97;4298079;33;34357;-72
2022/11/13 02:16:51;;;;;;;46.80;26.30;;;;;;;6.68;76.61;101397.69;4305083;33;33966;-72
2022/11/13 02:19:41;;;;;;;48.65;26.95;;;;;;;7.00;75.62;101393.81;4305127;33;34911;-76
2022/11/13 02:22:37;;;;;;;45.05;26.50;;;;;;;6.91;76.33;101397.59;4284283;33;34995;-72
2022/11/13 02:25:24;;;;;;;52.58;28.15;;;;;;;7.06;76.17;101389.53;4279787;33;34729;-71
2022/11/13 02:28:10;;;;;;;46.47;26.90;;;;;;;7.58;73.96;101396.66;4279529;33;33633;-76
2022/11/13 02:30:56;;;;;;;49.65;27.30;;;;;;;7.28;75.31;101387.75;4290434;33;33887;-71
2022/11/13 02:33:41;;;;;;;52.28;28.30;;;;;;;7.69;74.36;101392.66;4290328;33;34216;-72
2022/11/13 02:36:29;;;;;;;45.88;25.45;;;;;;;7.29;76.14;101384.88;4299035;33;34087;-71
2022/11/13 02:39:14;;;;;;;55.05;27.23;;;;;;;7.07;77.14;101381.25;4303055;33;34614;-72
2022/11/13 02:42:00;;;;;;;55.83;25.37;;;;;;;7.13;76.96;101379.69;4293534;33;34136;-72
2022/11/13 02:44:46;;;;;;;62.30;25.27;;;;;;;6.63;78.92;101381.19;4304585;33;34122;-72
2022/11/13 02:47:32;;;;;;;58.78;24.23;;;;;;;6.88;78.06;101381.78;4304100;33;34702;-71
2022/11/13 02:50:18;;;;;;;56.47;24.90;;;;;;;6.99;77.77;101375.94;4291364;33;32501;-75
2022/11/13 02:53:05;;;;;;;52.55;27.52;;;;;;;6.59;78.99;101372.66;4303755;33;33884;-73
2022/11/13 02:55:51;;;;;;;51.13;27.95;;;;;;;6.44;80.26;101377.16;4303918;33;34264;-71
2022/11/13 02:58:37;;;;;;;68.80;24.17;;;;;;;6.57;79.47;101378.22;4304700;33;33721;-76
2022/11/13 03:01:23;;;;;;;58.85;26.15;;;;;;;5.90;82.24;101378.03;4304658;33;33697;-72
2022/11/13 03:04:09;;;;;;;61.60;27.98;;;;;;;6.29;80.70;101388.72;4293205;33;33770;-76
2022/11/13 03:06:55;;;;;;;69.30;29.20;;;;;;;6.01;81.87;101391.12;4304782;33;34242;-71
2022/11/13 03:09:41;;;;;;;53.38;29.75;;;;;;;6.25;80.59;101389.28;4304523;33;34993;-72
2022/11/13 03:12:27;;;;;;;60.60;27.15;;;;;;;7.08;77.05;101390.19;4303530;33;33858;-71
2022/11/13 03:15:12;;;;;;;53.22;25.90;;;;;;;6.76;77.84;101401.12;4303899;33;33976;-73
2022/11/13 03:18:04;;;;;;;55.25;27.83;;;;;;;6.66;77.96;101395.16;4293702;33;34234;-71
2022/11/13 03:20:52;;;;;;;55.63;26.70;;;;;;;6.83;77.17;101398.53;4293781;33;33983;-76
2022/11/13 03:23:39;;;;;;;51.80;27.25;;;;;;;7.04;76.19;101389.72;4303639;33;33756;-72
2022/11/13 03:26:28;;;;;;;46.25;27.08;;;;;;;6.99;76.19;101392.13;4293652;33;33918;-72
2022/11/13 03:29:14;;;;;;;50.15;26.95;;;;;;;6.81;76.40;101383.56;4303573;33;34130;-72
2022/11/13 03:32:02;;;;;;;43.90;26.60;;;;;;;6.58;76.89;101384.44;4304519;33;33916;-72
2022/11/13 03:34:47;;;;;;;50.88;28.58;;;;;;;6.61;76.68;101384.09;4304694;33;34301;-71
2022/11/13 03:37:33;;;;;;;60.33;33.92;;;;;;;6.57;76.29;101383.59;4303941;33;33965;-71
2022/11/13 03:40:19;;;;;;;54.55;30.80;;;;;;;6.53;76.04;101390.38;4293306;33;34979;-71
2022/11/13 03:43:05;;;;;;;56.45;32.25;;;;;;;6.75;75.23;101391.34;4304531;33;34018;-75
2022/11/13 03:45:51;;;;;;;61.92;35.72;;;;;;;6.70;74.86;101398.34;4303735;33;34480;-72
2022/11/13 03:48:36;;;;;;;60.03;34.08;;;;;;;6.67;75.11;101387.91;4304480;33;34760;-75
2022/11/13 03:51:22;;;;;;;55.78;34.28;;;;;;;6.95;73.30;101385.41;4292791;33;34029;-71
2022/11/13 03:54:08;;;;;;;64.32;33.83;;;;;;;6.41;75.19;101391.00;4289804;33;33884;-72
2022/11/13 03:56:54;;;;;;;58.97;32.88;;;;;;;6.39;75.21;101380.38;4290098;33;34404;-71
2022/11/13 03:59:39;;;;;;;50.63;31.42;;;;;;;6.55;74.55;101387.50;4302500;33;34170;-76
2022/11/13 04:02:25;;;;;;;57.47;32.72;;;;;;;6.93;72.93;101382.94;4302348;33;34908;-76
2022/11/13 04:05:11;;;;;;;58.38;34.33;;;;;;;6.92;72.13;101383.94;4289306;33;34222;-72
2022/11/13 04:07:57;;;;;;;59.08;34.80;;;;;;;6.86;72.56;101383.84;4290025;33;33532;-72
2022/11/13 04:10:44;;;;;;;66.50;34.72;;;;;;;6.65;73.71;101389.94;4289812;33;34605;-70
2022/11/13 04:13:30;;;;;;;75.25;38.00;;;;;;;6.77;73.04;101388.47;4278833;33;34864;-71
2022/11/13 04:16:16;;;;;;;70.87;34.83;;;;;;;6.56;74.29;101389.16;4278686;33;34508;-70
2022/11/13 04:19:02;;;;;;;70.95;37.10;;;;;;;6.31;75.21;101384.00;4289510;33;34279;-71
2022/11/13 04:21:48;;;;;;;52.83;31.20;;;;;;;6.26;75.20;101378.28;4300681;33;34036;-72
2022/11/13 04:24:33;;;;;;;53.83;30.95;;;;;;;6.23;75.38;101385.91;4304148;33;33937;-71
2022/11/13 04:27:19;;;;;;;59.17;31.15;;;;;;;6.80;72.91;101385.41;4293057;33;34941;-79
2022/11/13 04:30:06;;;;;;;52.08;30.62;;;;;;;6.28;74.56;101378.12;4304123;33;33654;-75
2022/11/13 04:32:52;;;;;;;54.35;31.08;;;;;;;6.47;74.56;101387.56;4304107;33;34052;-73
2022/11/13 04:35:40;;;;;;;53.80;31.17;;;;;;;6.67;73.09;101393.28;4303153;33;34064;-73
2022/11/13 04:38:26;;;;;;;51.55;30.52;;;;;;;6.69;73.26;101392.06;4302603;33;33632;-76
2022/11/13 04:44:17;;;;;;;48.15;28.58;;;;;;;6.02;76.11;101381.16;4303750;33;34782;-75
2022/11/13 04:47:02;;;;;;;43.03;25.05;;;;;;;6.09;76.14;101385.69;4303958;33;35204;-73
2022/11/13 04:49:48;;;;;;;52.92;24.63;;;;;;;6.06;76.48;101391.41;4291799;33;34621;-74
2022/11/13 04:52:34;;;;;;;51.45;28.65;;;;;;;5.59;78.47;101368.06;4292907;33;34452;-74
2022/11/13 04:55:20;;;;;;;55.00;25.75;;;;;;;5.68;78.59;101393.09;4302846;33;33810;-78
2022/11/13 04:58:05;;;;;;;47.62;27.45;;;;;;;5.71;78.45;101382.84;4282358;33;34019;-77
2022/11/13 05:00:51;;;;;;;40.80;23.95;;;;;;;5.77;78.48;101381.31;4288873;33;34135;-73
2022/11/13 05:03:37;;;;;;;45.12;23.92;;;;;;;6.03;77.87;101377.47;4294137;33;34537;-75
2022/11/13 05:06:23;;;;;;;38.22;22.55;;;;;;;6.29;77.14;101377.13;4303724;33;34075;-75
2022/11/13 05:09:10;;;;;;;39.47;21.75;;;;;;;7.06;73.71;101382.28;4303045;33;34930;-77
2022/11/13 05:11:55;;;;;;;32.78;18.90;;;;;;;7.11;72.73;101379.87;4284502;33;33953;-73
2022/11/13 05:14:41;;;;;;;43.90;19.37;;;;;;;6.39;76.08;101382.25;4291190;33;34478;-77
2022/11/13 05:17:27;;;;;;;37.15;21.73;;;;;;;5.63;79.76;101371.28;4277731;33;34083;-77
2022/11/13 05:20:13;;;;;;;51.85;22.02;;;;;;;5.70;79.85;101372.22;4305272;33;34255;-76
2022/11/13 05:22:58;;;;;;;61.90;20.70;;;;;;;5.40;81.46;101371.19;4294395;33;33749;-78
2022/11/13 05:25:44;;;;;;;48.42;25.75;;;;;;;5.39;81.15;101374.91;4305288;33;34225;-73
2022/11/13 05:28:30;;;;;;;52.25;27.87;;;;;;;5.89;78.61;101374.47;4289447;33;32624;-73
2022/11/13 05:31:16;;;;;;;45.42;26.87;;;;;;;6.18;78.11;101381.06;4290855;33;34016;-72
2022/11/13 05:34:03;;;;;;;54.10;23.87;;;;;;;6.32;77.40;101385.66;4280161;33;34078;-77
2022/11/13 05:36:51;;;;;;;55.35;23.90;;;;;;;5.94;78.60;101380.22;4305476;33;34277;-75
2022/11/13 05:39:37;;;;;;;40.22;23.38;;;;;;;5.39;81.99;101375.75;4305349;33;34729;-74
2022/11/13 05:42:22;;;;;;;43.78;23.85;;;;;;;6.29;78.70;101380.62;4293208;33;34324;-77
2022/11/13 05:45:09;;;;;;;51.45;22.50;;;;;;;6.33;77.92;101379.25;4290948;33;33871;-73
2022/11/13 05:47:56;;;;;;;58.92;25.60;;;;;;;5.88;79.71;101374.66;4296199;33;33951;-76
2022/11/13 05:50:41;;;;;;;51.17;26.58;;;;;;;5.60;80.98;101368.94;4305248;33;34272;-72
2022/11/13 05:53:27;;;;;;;43.58;24.23;;;;;;;6.04;79.19;101365.66;4305302;33;34125;-74
2022/11/13 05:56:36;;;;;;;55.33;23.48;;;;;;;6.64;76.95;101364.00;4304955;33;34324;-73
2022/11/13 05:59:22;;;;;;;53.58;23.77;;;;;;;5.97;79.72;101370.94;4305063;33;34385;-78
2022/11/13 06:02:07;;;;;;;50.30;25.90;;;;;;;5.00;84.48;101360.41;4285297;33;34656;-74
2022/11/13 06:04:53;;;;;;;49.45;25.48;;;;;;;4.98;84.78;101354.38;4305280;33;34330;-78
2022/11/13 06:07:41;;;;;;;67.47;22.80;;;;;;;6.16;79.94;101356.97;4302397;33;33817;-71
2022/11/13 06:10:27;;;;;;;48.45;23.80;;;;;;;5.87;80.81;101365.72;4305031;33;33575;-81
2022/11/13 06:13:12;;;;;;;57.10;24.27;;;;;;;5.73;81.74;101361.12;4305006;33;34637;-74
2022/11/13 06:16:04;;;;;;;48.20;24.08;;;;;;;5.89;81.91;101370.94;4305140;33;35219;-73
2022/11/13 06:18:57;;;;;;;50.10;24.58;;;;;;;6.70;77.93;101372.19;4303575;33;34664;-75
2022/11/13 06:21:43;;;;;;;43.63;25.02;;;;;;;6.25;79.71;101363.16;4304380;33;33646;-76
2022/11/13 06:24:28;;;;;;;64.82;26.27;;;;;;;6.45;79.52;101358.09;4304547;33;34222;-76
2022/11/13 06:27:14;;;;;;;53.47;26.23;;;;;;;6.40;79.81;101368.59;4305083;33;35109;-74
2022/11/13 06:30:00;;;;;;;70.62;22.05;;;;;;;5.57;84.03;101367.41;4304588;33;33564;-74
2022/11/13 06:32:52;;;;;;;57.22;21.95;;;;;;;5.10;86.55;101377.22;4305097;33;33562;-72
2022/11/13 06:35:38;;;;;;;40.53;23.40;;;;;;;5.61;85.28;101373.28;4288164;33;33763;-76
2022/11/13 06:38:24;;;;;;;43.95;19.98;;;;;;;6.00;82.75;101365.16;4290135;33;34035;-77
2022/11/13 06:41:12;;;;;;;45.20;21.95;;;;;;;6.07;82.69;101370.69;4290682;33;34001;-76
2022/11/13 06:43:58;;;;;;;45.22;20.05;;;;;;;6.02;83.70;101376.59;4278227;33;34418;-75
2022/11/13 06:46:47;;;;;;;42.40;20.30;;;;;;;6.11;83.48;101374.69;4293242;33;33719;-77
2022/11/13 06:49:33;;;;;;;45.12;21.65;;;;;;;5.98;83.86;101371.75;4290104;33;34042;-78
2022/11/13 06:52:19;;;;;;;42.78;20.85;;;;;;;6.01;84.17;101377.66;4303488;33;34161;-77
2022/11/13 06:55:05;;;;;;;39.63;22.60;;;;;;;6.26;83.17;101386.37;4303941;33;33442;-75
2022/11/13 06:57:50;;;;;;;54.45;28.38;;;;;;;6.12;83.90;101387.16;4304602;33;34135;-75
2022/11/13 07:00:36;;;;;;;47.92;28.17;;;;;;;6.47;82.01;101391.09;4291512;33;35107;-74
2022/11/13 07:03:25;;;;;;;43.83;25.90;;;;;;;6.76;80.58;101386.81;4279091;33;34129;-75
2022/11/13 07:06:19;;;;;;;46.47;27.60;;;;;;;6.90;80.21;101401.34;4289868;33;33502;-76
2022/11/13 07:09:05;;;;;;;44.83;26.73;;;;;;;7.23;79.22;101395.59;4292061;33;34012;-73
2022/11/13 07:11:51;;;;;;;44.75;27.80;;;;;;;7.13;78.91;101393.19;4303882;33;33797;-75
2022/11/13 07:14:36;;;;;;;43.10;25.52;;;;;;;7.56;78.03;101404.97;4304286;33;33663;-73
2022/11/13 07:17:22;;;;;;;42.30;26.17;;;;;;;7.36;80.00;101393.94;4302813;33;33417;-76
2022/11/13 07:20:09;;;;;;;40.03;24.00;;;;;;;7.74;78.91;101391.06;4303866;33;34815;-74
2022/11/13 07:22:55;;;;;;;39.38;24.48;;;;;;;7.70;78.32;101405.12;4293434;33;34336;-75
2022/11/13 07:25:41;;;;;;;44.00;26.62;;;;;;;7.62;77.36;101392.56;4303319;33;33856;-72
2022/11/13 07:28:27;;;;;;;45.12;24.52;;;;;;;7.02;80.33;101407.09;4304240;33;33484;-74
2022/11/13 07:31:15;;;;;;;42.35;25.17;;;;;;;6.18;84.15;101394.53;4292806;33;33761;-72
2022/11/13 07:34:01;;;;;;;39.13;21.30;;;;;;;7.13;80.16;101395.87;4303663;33;33999;-73
2022/11/13 07:36:46;;;;;;;42.92;24.20;;;;;;;6.53;81.72;101397.62;4304232;33;34118;-74
2022/11/13 07:39:32;;;;;;;40.95;24.30;;;;;;;6.95;80.87;101393.53;4295153;33;34496;-76
2022/11/13 07:42:18;;;;;;;44.35;23.58;;;;;;;7.43;79.04;101398.56;4299590;33;34053;-73
2022/11/13 07:45:04;;;;;;;36.95;22.25;;;;;;;7.10;80.14;101388.12;4304071;33;34776;-70
2022/11/13 07:47:50;;;;;;;37.13;23.65;;;;;;;7.10;81.39;101391.66;4282544;33;34307;-73
2022/11/13 07:50:37;;;;;;;38.13;24.27;;;;;;;7.67;79.51;101400.13;4304005;33;34543;-83
2022/11/13 07:53:23;;;;;;;34.00;22.70;;;;;;;7.59;79.21;101393.78;4302820;33;33860;-75
2022/11/13 07:56:09;;;;;;;32.17;22.15;;;;;;;7.54;80.30;101390.00;4301046;33;33937;-71
2022/11/13 07:58:54;;;;;;;39.22;23.02;;;;;;;7.54;80.85;101403.50;4289776;33;34032;-73
2022/11/13 08:01:40;;;;;;;37.50;23.02;;;;;;;7.94;78.03;101393.97;4300518;33;33717;-76
2022/11/13 08:04:27;;;;;;;39.80;22.50;;;;;;;8.30;76.32;101395.00;4290101;33;33982;-75
2022/11/13 08:07:13;;;;;;;36.72;23.42;;;;;;;8.25;77.14;101394.72;4303911;33;34253;-79
2022/11/13 08:09:59;;;;;;;39.85;22.37;;;;;;;8.62;76.31;101382.81;4318776;33;34521;-75
2022/11/13 08:12:45;;;;;;;42.35;27.17;;;;;;;8.43;76.86;101384.31;4309469;33;31454;-75
2022/11/13 08:15:32;;;;;;;38.58;23.55;;;;;;;8.79;77.24;101396.88;4302149;33;33803;-72
2022/11/13 08:18:18;;;;;;;35.13;20.50;;;;;;;8.77;77.63;101390.84;4289853;33;33644;-78
2022/11/13 08:21:04;;;;;;;31.58;20.05;;;;;;;7.98;79.96;101392.56;4298566;33;33753;-70
2022/11/13 08:23:58;;;;;;;37.80;18.90;;;;;;;7.75;82.49;101391.88;4289969;33;33366;-73
2022/11/13 08:26:44;;;;;;;48.45;26.15;;;;;;;7.81;82.87;101386.56;4303635;33;34042;-74
2022/11/13 08:29:29;;;;;;;35.00;21.95;;;;;;;7.57;84.34;101393.13;4297120;33;35189;-73
2022/11/13 08:32:17;;;;;;;37.65;23.25;;;;;;;9.09;77.17;101397.50;4308979;33;34164;-71
2022/11/13 08:35:04;;;;;;;37.75;23.95;;;;;;;9.52;74.22;101396.50;4306112;33;33662;-75
2022/11/13 08:37:50;;;;;;;39.50;24.50;;;;;;;9.78;72.68;101396.63;4283063;33;33968;-75
2022/11/13 08:40:36;;;;;;;40.75;23.62;;;;;;;9.24;75.94;101387.41;4304054;33;34874;-73
2022/11/13 08:43:22;;;;;;;38.38;23.48;;;;;;;8.86;78.46;101384.25;4301666;33;33900;-72
2022/11/13 08:46:07;;;;;;;33.40;21.52;;;;;;;9.47;76.31;101382.72;4301326;33;33870;-77
2022/11/13 08:48:53;;;;;;;32.85;22.15;;;;;;;9.88;75.59;101384.56;4286799;33;33869;-76
2022/11/13 08:51:39;;;;;;;41.00;25.00;;;;;;;10.13;74.60;101382.97;4291437;33;34157;-77
2022/11/13 08:54:25;;;;;;;39.13;23.83;;;;;;;10.32;73.95;101391.34;4298356;33;33858;-76
2022/11/13 08:57:11;;;;;;;37.25;24.05;;;;;;;9.96;75.67;101389.81;4303192;33;33570;-75
2022/11/13 08:59:56;;;;;;;35.92;23.40;;;;;;;9.70;77.30;101379.69;4299701;33;34686;-74
2022/11/13 09:02:43;;;;;;;34.55;22.73;;;;;;;9.72;77.12;101385.75;4299659;33;33922;-75
2022/11/13 09:05:29;;;;;;;32.03;21.33;;;;;;;10.17;76.52;101389.66;4298483;33;34052;-74
2022/11/13 09:08:14;;;;;;;32.05;21.55;;;;;;;10.41;73.61;101390.97;4303378;33;33409;-74
2022/11/13 09:11:03;;;;;;;33.08;21.27;;;;;;;10.25;74.15;101391.31;4289007;33;32447;-77
2022/11/13 09:13:48;;;;;;;30.48;20.50;;;;;;;10.42;73.42;101389.06;4289380;33;34324;-86
2022/11/13 09:16:39;;;;;;;32.78;22.05;;;;;;;10.51;73.75;101387.00;4308241;33;33651;-79
2022/11/13 09:19:26;;;;;;;32.95;22.33;;;;;;;10.56;71.95;101381.75;4311344;33;33281;-78
2022/11/13 09:22:12;;;;;;;29.73;20.33;;;;;;;10.28;74.16;101390.91;4301652;33;34040;-75
2022/11/13 09:24:57;;;;;;;34.95;20.85;;;;;;;10.45;73.04;101388.66;4300534;33;35223;-77
2022/11/13 09:27:51;;;;;;;30.95;20.95;;;;;;;10.43;74.45;101391.59;4300442;33;34142;-77
2022/11/13 09:30:38;;;;;;;31.60;20.17;;;;;;;10.83;72.60;101386.13;4290879;33;34074;-84
2022/11/13 09:33:23;;;;;;;31.65;20.85;;;;;;;10.77;74.16;101386.16;4293599;33;33968;-79
2022/11/13 09:36:11;;;;;;;32.10;20.98;;;;;;;10.77;73.74;101386.97;4314956;33;34030;-77
2022/11/13 09:38:59;;;;;;;29.23;20.17;;;;;;;11.20;73.20;101385.66;4296212;33;34287;-75
2022/11/13 09:41:50;;;;;;;34.15;22.95;;;;;;;11.01;74.14;101376.50;4317346;33;33748;-71
2022/11/13 09:45:00;;;;;;;31.12;20.00;;;;;;;11.39;72.69;101371.19;4300964;33;34875;-79
2022/11/13 09:47:47;;;;;;;30.55;19.95;;;;;;;10.60;75.83;101370.28;4276979;33;34246;-76
2022/11/13 09:50:33;;;;;;;30.33;20.05;;;;;;;10.99;74.86;101362.31;4291284;33;33835;-76
2022/11/13 09:53:19;;;;;;;30.77;19.10;;;;;;;11.10;74.85;101356.25;4289551;33;33654;-74
2022/11/13 09:56:05;;;;;;;31.25;20.30;;;;;;;11.14;75.44;101354.75;4303464;33;33289;-79
2022/11/13 09:59:22;;;;;;;30.02;19.92;;;;;;;11.16;75.33;101355.37;4290317;33;35118;-84
2022/11/13 10:02:22;;;;;;;33.72;21.30;;;;;;;10.60;78.72;101354.00;4301991;33;33990;-78
2022/11/13 10:05:12;;;;;;;32.92;20.55;;;;;;;11.16;76.43;101347.22;4296306;33;33013;-78
2022/11/13 10:08:12;;;;;;;30.98;20.98;;;;;;;10.89;78.05;101341.03;4293853;33;34463;-81
2022/11/13 10:11:24;;;;;;;34.97;21.20;;;;;;;11.18;75.56;101331.53;4281798;33;33630;-75
2022/11/13 10:14:18;;;;;;;41.00;24.10;;;;;;;10.99;77.41;101325.13;4318355;33;33613;-74
2022/11/13 10:17:14;;;;;;;40.42;24.95;;;;;;;11.28;77.22;101326.50;4306372;33;33630;-74
2022/11/13 10:20:03;;;;;;;41.60;24.92;;;;;;;11.42;76.52;101323.72;4307255;33;34005;-74
2022/11/13 10:23:08;;;;;;;39.38;23.67;;;;;;;11.56;75.88;101319.91;4318667;33;34316;-74
2022/11/13 10:25:55;;;;;;;37.50;22.55;;;;;;;11.28;77.89;101315.63;4316206;33;33926;-75
2022/11/13 10:28:41;;;;;;;39.30;24.37;;;;;;;11.02;78.70;101307.56;4304304;33;33509;-74
2022/11/13 10:31:47;;;;;;;42.08;24.08;;;;;;;10.96;79.45;101311.13;4317049;33;34785;-76
2022/11/13 10:34:33;;;;;;;47.70;26.92;;;;;;;10.71;81.01;101300.12;4278990;33;34264;-75
2022/11/13 10:37:27;;;;;;;45.95;26.37;;;;;;;11.09;79.79;101297.50;4278209;33;34017;-77
2022/11/13 10:40:27;;;;;;;41.72;24.92;;;;;;;11.74;77.49;101294.69;4278628;33;34635;-76
2022/11/13 10:43:16;;;;;;;47.50;27.45;;;;;;;11.62;78.33;101289.12;4285238;33;33963;-75
2022/11/13 10:46:04;;;;;;;44.33;27.08;;;;;;;11.98;76.48;101284.94;4300096;33;34919;-76
2022/11/13 10:48:50;;;;;;;39.88;24.05;;;;;;;12.54;73.93;101287.84;4294711;33;33975;-74
2022/11/13 10:51:38;;;;;;;40.33;23.90;;;;;;;12.42;74.23;101280.41;4307690;33;34184;-73
2022/11/13 10:54:26;;;;;;;41.25;24.23;;;;;;;12.50;74.57;101273.84;4307756;33;34111;-75
2022/11/13 10:57:22;;;;;;;42.17;25.75;;;;;;;12.86;72.29;101281.22;4307465;33;34226;-73
2022/11/13 11:00:20;;;;;;;43.83;26.98;;;;;;;12.71;72.54;101278.03;4305706;33;34720;-76
2022/11/13 11:03:20;;;;;;;40.90;24.55;;;;;;;12.89;72.02;101271.75;4307538;33;33564;-73
2022/11/13 11:06:08;;;;;;;35.42;22.00;;;;;;;12.80;72.19;101270.38;4318939;33;34941;-76
2022/11/13 11:09:05;;;;;;;40.30;22.70;;;;;;;13.17;70.99;101260.31;4302147;33;33863;-75
2022/11/13 11:12:14;;;;;;;36.38;22.25;;;;;;;13.04;71.55;101261.28;4288966;33;33913;-75
2022/11/13 11:15:20;;;;;;;38.50;22.65;;;;;;;13.13;70.86;101250.91;4302957;33;33362;-72
2022/11/13 11:18:18;;;;;;;35.60;20.95;;;;;;;13.21;71.05;101241.59;4290774;33;34835;-71
2022/11/13 11:21:09;;;;;;;33.70;21.67;;;;;;;13.32;70.01;101241.69;4277495;33;34774;-72
2022/11/13 11:24:05;;;;;;;37.03;21.50;;;;;;;13.71;69.12;101252.25;4287518;33;34085;-72
2022/11/13 11:27:10;;;;;;;34.63;20.70;;;;;;;14.31;66.16;101249.41;4282938;33;232344;-74
2022/11/13 11:30:11;;;;;;;38.90;21.67;;;;;;;14.31;67.03;101243.94;4288471;33;34927;-74
2022/11/13 11:33:18;;;;;;;36.10;21.87;;;;;;;14.22;66.93;101242.63;4280090;33;34799;-75
2022/11/13 11:36:17;;;;;;;37.42;21.65;;;;;;;14.54;65.67;101245.00;4298454;33;33865;-73
2022/11/13 11:39:14;;;;;;;40.25;21.85;;;;;;;14.98;64.43;101231.78;4291786;33;33503;-74
2022/11/13 11:42:34;;;;;;;29.90;20.05;;;;;;;14.82;63.77;101238.84;4291433;33;33851;-74
2022/11/13 11:45:20;;;;;;;31.75;19.45;;;;;;;15.28;62.43;101228.81;4291777;33;34224;-72
2022/11/13 11:48:14;;;;;;;32.35;20.98;;;;;;;15.26;61.95;101222.78;4302763;33;34673;-73
2022/11/13 11:51:03;;;;;;;34.13;19.87;;;;;;;15.67;61.84;101229.00;4286300;33;33261;-72
2022/11/13 11:54:03;;;;;;;30.02;18.17;;;;;;;14.86;62.64;101228.22;4285168;33;34482;-74
2022/11/13 11:56:55;;;;;;;27.92;18.50;;;;;;;15.92;58.68;101219.63;4287853;33;33849;-71
2022/11/13 11:59:45;;;;;;;26.73;15.50;;;;;;;16.13;58.84;101209.78;4287243;33;34145;-71
2022/11/13 12:02:51;;;;;;;29.20;17.98;;;;;;;16.10;57.02;101202.91;4286846;33;34452;-81
2022/11/13 12:05:46;;;;;;;31.00;19.23;;;;;;;15.55;58.89;101203.59;4286520;33;35390;-74
2022/11/13 12:08:37;;;;;;;31.30;19.05;;;;;;;15.36;60.08;101198.34;4281212;33;35040;-75
2022/11/13 12:11:29;;;;;;;30.30;19.23;;;;;;;15.44;59.83;101196.28;4286104;33;33576;-74
2022/11/13 12:14:23;;;;;;;34.30;18.25;;;;;;;16.20;57.51;101183.91;4273049;33;33268;-74
2022/11/13 12:17:26;;;;;;;29.25;18.42;;;;;;;16.14;57.52;101179.44;4279456;33;34704;-74
2022/11/13 12:20:21;;;;;;;33.95;19.98;;;;;;;15.77;58.40;101173.66;4287903;33;35674;-74
2022/11/13 12:23:14;;;;;;;32.33;19.62;;;;;;;16.35;56.99;101163.31;4272352;33;34269;-75
2022/11/13 12:26:27;;;;;;;32.95;20.35;;;;;;;15.55;59.07;101160.69;4272308;33;33286;-75
2022/11/13 12:29:32;;;;;;;28.62;15.63;;;;;;;15.88;58.01;101158.22;4279950;33;33827;-75
2022/11/13 12:32:34;;;;;;;27.08;16.83;;;;;;;14.90;59.79;101148.28;4287119;33;34344;-75
2022/11/13 12:35:22;;;;;;;29.05;16.48;;;;;;;13.86;63.10;101143.53;4287360;33;34324;-74
2022/11/13 12:38:59;;;;;;;26.77;17.02;;;;;;;13.73;64.19;101144.59;4289537;33;33786;-73
2022/11/13 12:42:05;;;;;;;;;;;;;;;14.56;60.70;101141.84;4277554;33;33517;-73
2022/11/13 12:45:00;;;;;;;26.10;15.43;;;;;;;14.20;62.27;101135.56;4286526;33;35192;-73
2022/11/13 12:47:50;;;;;;;26.55;15.40;;;;;;;14.33;61.95;101129.03;4288650;33;33469;-72
2022/11/13 12:50:36;;;;;;;28.00;16.20;;;;;;;14.29;61.43;101133.31;4291732;33;34783;-71
2022/11/13 12:53:27;;;;;;;26.08;16.98;;;;;;;13.96;63.17;101123.84;4302019;33;34860;-73
2022/11/13 12:56:16;;;;;;;26.02;15.82;;;;;;;14.37;61.04;101130.22;4290334;33;35183;-73